Time;durP1;ratioP1;P1;durP2;ratioP2;P2;SDS_P1;SDS_P2;PMS_P1;PMS_P2;Temp;Humidity;BMP_temperature;BMP_pressure;BME280_temperature;BME280_humidity;BME280_pressure;Samples;Min_cycle;Max_cycle;Signal;HPM_P1;HPM_P2
2023/08/15 00:02:09;;;;;;;0.10;0.10;;;;;;;19.52;53.35;100631.72;7347155;19;20035;-55
2023/08/15 00:04:35;;;;;;;0.08;0.08;;;;;;;19.48;53.33;100622.25;7349122;19;20485;-54
2023/08/15 00:07:04;;;;;;;0.10;0.10;;;;;;;19.42;52.95;100626.97;7353508;19;20782;-55
2023/08/15 00:09:30;;;;;;;0.00;0.00;;;;;;;19.33;53.70;100616.09;7352389;19;20030;-56
2023/08/15 00:11:56;;;;;;;0.10;0.10;;;;;;;19.32;53.54;100620.53;7347419;19;20921;-51
2023/08/15 00:14:21;;;;;;;0.10;0.10;;;;;;;19.28;53.73;100619.00;7349287;19;20014;-56
2023/08/15 00:16:46;;;;;;;0.10;0.10;;;;;;;19.16;54.04;100611.81;7352789;19;20048;-56
2023/08/15 00:19:12;;;;;;;0.00;0.00;;;;;;;19.20;53.51;100631.84;7352892;19;20011;-55
2023/08/15 00:21:37;;;;;;;0.10;0.10;;;;;;;19.02;54.20;100607.34;7350687;19;20010;-56
2023/08/15 00:24:03;;;;;;;0.03;0.03;;;;;;;19.11;54.28;100627.09;7353631;19;20099;-57
2023/08/15 00:26:28;;;;;;;0.00;0.00;;;;;;;19.08;54.01;100627.28;7353472;19;20011;-56
2023/08/15 00:28:54;;;;;;;0.10;0.10;;;;;;;19.03;54.28;100630.22;7351375;19;20098;-56
2023/08/15 00:31:19;;;;;;;0.00;0.00;;;;;;;19.00;54.01;100626.88;7354542;19;19998;-56
2023/08/15 00:33:44;;;;;;;0.00;0.00;;;;;;;18.94;54.05;100625.44;7350582;19;20034;-55
2023/08/15 00:36:10;;;;;;;0.08;0.08;;;;;;;18.91;54.48;100625.66;7354243;19;20018;-56
2023/08/15 00:38:35;;;;;;;0.00;0.00;;;;;;;18.87;54.26;100624.13;7328001;19;20964;-54
2023/08/15 00:41:00;;;;;;;0.00;0.00;;;;;;;18.83;54.32;100634.03;7353735;19;20010;-55
2023/08/15 00:43:26;;;;;;;0.00;0.00;;;;;;;18.80;54.66;100633.34;7352788;19;20018;-56
2023/08/15 00:45:52;;;;;;;0.05;0.05;;;;;;;18.74;54.17;100628.41;7353835;19;20750;-55
2023/08/15 00:48:17;;;;;;;0.10;0.10;;;;;;;18.71;54.81;100634.75;7352529;19;20014;-56
2023/08/15 00:50:47;;;;;;;0.00;0.00;;;;;;;18.68;54.68;100640.19;7347800;19;20026;-57
2023/08/15 00:53:13;;;;;;;0.00;0.00;;;;;;;18.63;54.94;100636.94;7352013;19;20017;-57
2023/08/15 00:55:39;;;;;;;0.00;0.00;;;;;;;18.59;54.76;100651.25;7353392;19;20010;-56
2023/08/15 00:58:05;;;;;;;0.00;0.00;;;;;;;18.54;54.99;100653.31;7353536;19;20018;-57
2023/08/15 01:00:30;;;;;;;0.00;0.00;;;;;;;18.50;55.31;100652.66;7351811;19;20019;-57
2023/08/15 01:02:56;;;;;;;0.00;0.00;;;;;;;18.47;55.47;100657.25;7351127;19;20016;-56
2023/08/15 01:05:21;;;;;;;0.00;0.00;;;;;;;18.46;55.78;100660.84;7354061;19;20113;-56
2023/08/15 01:07:47;;;;;;;0.00;0.00;;;;;;;18.45;55.58;100659.13;7351117;19;20033;-55
2023/08/15 01:10:12;;;;;;;0.10;0.10;;;;;;;18.43;56.01;100664.50;7354079;19;20034;-56
2023/08/15 01:13:29;;;;;;;0.00;0.00;;;;;;;18.45;54.14;100659.13;7350293;19;20017;-57
2023/08/15 01:15:55;;;;;;;0.05;0.05;;;;;;;18.40;56.01;100662.91;7249522;19;2004598;-56
2023/08/15 01:18:28;;;;;;;0.00;0.00;;;;;;;18.39;55.19;100658.53;7347987;19;20014;-56
2023/08/15 01:20:55;;;;;;;0.10;0.10;;;;;;;18.38;55.33;100659.47;7355434;19;20389;-56
2023/08/15 01:23:30;;;;;;;0.08;0.08;;;;;;;18.25;55.82;100647.88;7344209;19;20135;-53
2023/08/15 01:25:55;;;;;;;0.10;0.10;;;;;;;18.34;56.15;100667.66;7352346;19;20474;-56
2023/08/15 01:28:21;;;;;;;0.10;0.10;;;;;;;18.17;55.84;100643.94;7354456;19;20017;-56
2023/08/15 01:30:55;;;;;;;0.05;0.05;;;;;;;18.29;55.40;100665.25;7354829;19;20027;-55
2023/08/15 01:33:37;;;;;;;0.05;0.05;;;;;;;18.26;55.15;100660.16;7354333;19;20858;-54
2023/08/15 01:36:22;;;;;;;0.00;0.00;;;;;;;18.23;55.73;100656.81;7352717;19;20008;-56
2023/08/15 01:38:54;;;;;;;0.00;0.00;;;;;;;18.25;56.38;100669.03;7353656;19;20021;-56
2023/08/15 01:41:23;;;;;;;0.00;0.00;;;;;;;18.23;55.87;100673.53;7356248;19;20015;-56
2023/08/15 01:43:51;;;;;;;0.00;0.00;;;;;;;18.26;56.40;100678.66;7348828;19;20014;-56
2023/08/15 01:46:17;;;;;;;0.10;0.10;;;;;;;18.26;56.64;100669.88;7353204;19;22189;-55
2023/08/15 01:48:42;;;;;;;0.10;0.10;;;;;;;18.25;56.53;100668.16;7350879;19;20011;-56
2023/08/15 01:51:08;;;;;;;0.00;0.00;;;;;;;18.24;56.70;100677.88;7349969;19;20025;-54
2023/08/15 01:53:37;;;;;;;0.00;0.00;;;;;;;18.27;56.49;100669.78;7352440;19;20022;-55
2023/08/15 01:56:03;;;;;;;0.08;0.08;;;;;;;18.25;57.31;100674.31;7357457;19;20023;-57
2023/08/15 01:58:29;;;;;;;0.08;0.08;;;;;;;18.26;57.50;100668.09;7353015;19;20347;-54
2023/08/15 02:00:54;;;;;;;0.10;0.10;;;;;;;18.13;57.03;100648.53;7355500;19;20019;-55
2023/08/15 02:03:20;;;;;;;0.00;0.00;;;;;;;18.24;57.24;100672.59;7354400;19;20010;-57
2023/08/15 02:05:45;;;;;;;0.00;0.00;;;;;;;18.25;57.43;100670.78;7353603;19;20025;-55
2023/08/15 02:08:11;;;;;;;0.00;0.00;;;;;;;18.25;57.92;100671.69;7356271;19;20038;-57
2023/08/15 02:10:36;;;;;;;0.00;0.00;;;;;;;18.21;58.05;100666.63;7355486;19;20046;-57
2023/08/15 02:13:01;;;;;;;0.00;0.00;;;;;;;18.23;57.85;100677.97;7354159;19;20608;-57
2023/08/15 02:15:27;;;;;;;0.00;0.00;;;;;;;18.22;57.76;100674.47;7355108;19;20767;-56
2023/08/15 02:17:52;;;;;;;0.00;0.00;;;;;;;18.21;58.05;100677.22;7354755;19;20609;-56
2023/08/15 02:20:18;;;;;;;0.00;0.00;;;;;;;18.20;58.40;100672.84;7351088;19;20015;-56
2023/08/15 02:22:43;;;;;;;0.00;0.00;;;;;;;18.19;58.06;100682.56;7354993;19;20006;-55
2023/08/15 02:25:09;;;;;;;0.00;0.00;;;;;;;18.19;58.59;100685.19;7344853;19;20007;-57
2023/08/15 02:27:34;;;;;;;0.08;0.08;;;;;;;18.18;58.79;100678.22;7356391;19;20014;-56
2023/08/15 02:30:00;;;;;;;0.00;0.00;;;;;;;18.15;58.50;100679.25;7352272;19;20066;-57
2023/08/15 02:32:25;;;;;;;0.00;0.00;;;;;;;18.17;58.62;100681.81;7356872;19;20003;-55
2023/08/15 02:34:51;;;;;;;0.00;0.00;;;;;;;18.17;58.55;100687.09;7354676;19;20015;-57
2023/08/15 02:37:17;;;;;;;0.00;0.00;;;;;;;18.15;58.63;100684.53;7350888;19;20014;-56
2023/08/15 02:39:42;;;;;;;0.00;0.00;;;;;;;18.17;58.87;100689.72;7354186;19;20014;-55
2023/08/15 02:42:08;;;;;;;0.00;0.00;;;;;;;18.18;59.05;100685.28;7357740;19;20031;-57
2023/08/15 02:44:33;;;;;;;0.00;0.00;;;;;;;18.18;58.79;100691.44;7349180;19;20011;-57
2023/08/15 02:46:59;;;;;;;0.10;0.10;;;;;;;18.18;59.24;100688.78;7353870;19;20021;-54
2023/08/15 02:49:24;;;;;;;0.00;0.00;;;;;;;18.17;59.06;100684.44;7351146;19;20424;-52
2023/08/15 02:51:50;;;;;;;0.00;0.00;;;;;;;18.17;59.05;100695.00;7356340;19;20335;-56
2023/08/15 02:54:15;;;;;;;0.10;0.10;;;;;;;18.08;59.51;100671.72;7350640;19;20067;-55
2023/08/15 02:56:41;;;;;;;0.00;0.00;;;;;;;18.17;59.88;100676.50;7351451;19;20759;-55
2023/08/15 02:59:06;;;;;;;0.10;0.10;;;;;;;18.18;59.54;100690.59;7355022;19;20017;-56
2023/08/15 03:01:32;;;;;;;0.00;0.00;;;;;;;18.17;59.46;100694.16;7353904;19;20455;-56
2023/08/15 03:03:58;;;;;;;0.00;0.00;;;;;;;18.13;59.48;100693.47;7353003;19;20640;-56
2023/08/15 03:06:24;;;;;;;0.00;0.00;;;;;;;18.18;59.54;100694.06;7355422;19;20018;-55
2023/08/15 03:08:49;;;;;;;0.03;0.03;;;;;;;18.19;59.67;100695.78;7352437;19;20038;-56
2023/08/15 03:11:15;;;;;;;0.00;0.00;;;;;;;18.16;59.97;100695.97;7353297;19;20047;-56
2023/08/15 03:13:40;;;;;;;0.00;0.00;;;;;;;18.20;60.02;100708.06;7352354;19;20765;-57
2023/08/15 03:16:05;;;;;;;0.00;0.00;;;;;;;18.20;59.87;100701.91;7353415;19;20144;-56
2023/08/15 03:18:31;;;;;;;0.00;0.00;;;;;;;18.20;59.86;100708.06;7342235;19;20110;-56
2023/08/15 03:21:04;;;;;;;0.00;0.00;;;;;;;18.23;58.91;100699.97;7342922;19;20022;-56
2023/08/15 03:23:30;;;;;;;0.00;0.00;;;;;;;18.16;60.13;100701.25;7353327;19;20015;-57
2023/08/15 03:25:59;;;;;;;0.03;0.03;;;;;;;18.22;60.08;100714.13;7355939;19;20027;-57
2023/08/15 03:28:25;;;;;;;0.00;0.00;;;;;;;18.11;60.33;100698.00;7355011;19;20007;-55
2023/08/15 03:30:51;;;;;;;0.00;0.00;;;;;;;18.22;60.41;100715.91;7355121;19;20010;-54
2023/08/15 03:33:17;;;;;;;0.10;0.10;;;;;;;18.22;60.86;100715.91;7352588;19;20006;-57
2023/08/15 03:35:47;;;;;;;0.10;0.10;;;;;;;18.22;59.85;100716.75;7355551;19;20010;-56
2023/08/15 03:38:17;;;;;;;0.10;0.10;;;;;;;18.21;60.78;100715.06;7354846;19;20010;-56
2023/08/15 03:40:44;;;;;;;0.00;0.00;;;;;;;18.21;60.87;100715.06;7355091;19;20492;-57
2023/08/15 03:43:10;;;;;;;0.00;0.00;;;;;;;18.16;60.53;100711.81;7352050;19;20542;-53
2023/08/15 03:45:36;;;;;;;0.00;0.00;;;;;;;18.19;60.48;100722.22;7347396;19;20066;-56
2023/08/15 03:48:01;;;;;;;0.00;0.00;;;;;;;18.15;60.96;100715.41;7353574;19;20034;-56
2023/08/15 03:50:27;;;;;;;0.00;0.00;;;;;;;18.19;61.10;100726.63;7355494;19;20007;-55
2023/08/15 03:52:52;;;;;;;0.05;0.05;;;;;;;18.18;61.19;100720.50;7353859;19;20029;-55
2023/08/15 03:55:18;;;;;;;0.10;0.10;;;;;;;18.18;61.10;100725.78;7354114;19;20572;-57
2023/08/15 03:57:43;;;;;;;0.00;0.00;;;;;;;18.17;60.94;100724.09;7353394;19;20006;-55
2023/08/15 04:00:10;;;;;;;0.00;0.00;;;;;;;18.17;61.16;100721.44;7354524;19;20014;-57
2023/08/15 04:02:35;;;;;;;0.00;0.00;;;;;;;18.17;61.21;100718.81;7353537;19;20017;-56
2023/08/15 04:05:01;;;;;;;0.00;0.00;;;;;;;18.17;61.59;100721.44;7353668;19;20018;-57
2023/08/15 04:07:26;;;;;;;0.03;0.03;;;;;;;18.17;61.45;100724.09;7355237;19;20430;-55
2023/08/15 04:09:51;;;;;;;0.00;0.00;;;;;;;18.16;61.24;100727.69;7353651;19;20014;-58
2023/08/15 04:12:17;;;;;;;0.10;0.10;;;;;;;18.16;61.14;100722.38;7349595;19;20021;-56
2023/08/15 04:14:42;;;;;;;0.10;0.10;;;;;;;18.14;61.33;100718.97;7359453;19;20056;-55
2023/08/15 04:17:08;;;;;;;0.10;0.10;;;;;;;18.11;61.25;100713.84;7363334;19;20033;-55
2023/08/15 04:19:33;;;;;;;0.10;0.10;;;;;;;18.16;61.68;100722.38;7358404;19;20010;-55
2023/08/15 04:21:58;;;;;;;0.05;0.05;;;;;;;18.16;61.63;100725.03;7358985;19;20434;-56
2023/08/15 04:24:24;;;;;;;0.10;0.10;;;;;;;18.16;61.56;100725.03;7357528;19;20060;-55
2023/08/15 04:26:49;;;;;;;0.10;0.10;;;;;;;18.17;61.81;100728.53;7358834;19;20074;-56
2023/08/15 04:29:15;;;;;;;0.10;0.10;;;;;;;18.15;61.64;100731.25;7359821;19;20014;-56
2023/08/15 04:31:41;;;;;;;0.03;0.03;;;;;;;18.15;61.85;100729.47;7360409;19;20011;-57
2023/08/15 04:34:07;;;;;;;0.00;0.00;;;;;;;18.14;62.01;100734.81;7357839;19;20011;-56
2023/08/15 04:36:32;;;;;;;0.10;0.10;;;;;;;18.13;61.98;100736.59;7359394;19;20612;-55
2023/08/15 04:38:57;;;;;;;0.00;0.00;;;;;;;18.13;61.82;100733.97;7359189;19;20017;-55
2023/08/15 04:41:23;;;;;;;0.00;0.00;;;;;;;18.11;61.69;100735.84;7358171;19;20363;-56
2023/08/15 04:43:48;;;;;;;0.00;0.00;;;;;;;18.03;61.91;100731.91;7353302;19;20011;-56
2023/08/15 04:46:14;;;;;;;0.00;0.00;;;;;;;18.07;61.64;100734.31;7358893;19;20050;-57
2023/08/15 04:48:39;;;;;;;0.00;0.00;;;;;;;17.98;61.94;100726.00;7358410;19;20032;-56
2023/08/15 04:51:04;;;;;;;0.00;0.00;;;;;;;17.92;61.92;100723.69;7356939;19;20015;-57
2023/08/15 04:53:30;;;;;;;0.10;0.10;;;;;;;18.02;62.00;100743.41;7353904;19;20844;-57
2023/08/15 04:55:56;;;;;;;0.10;0.10;;;;;;;17.89;61.79;100728.22;7351333;19;20462;-56
2023/08/15 04:58:21;;;;;;;0.08;0.08;;;;;;;17.98;62.09;100749.78;7354321;19;20009;-56
2023/08/15 05:00:47;;;;;;;0.00;0.00;;;;;;;17.96;62.19;100744.59;7357201;19;20105;-55
2023/08/15 05:03:13;;;;;;;0.00;0.00;;;;;;;17.97;62.28;100753.38;7358974;19;20017;-57
2023/08/15 05:05:38;;;;;;;0.00;0.00;;;;;;;17.97;62.26;100748.09;7357036;19;20030;-56
2023/08/15 05:08:06;;;;;;;0.00;0.00;;;;;;;17.96;62.00;100752.50;7358176;19;20006;-56
2023/08/15 05:10:31;;;;;;;0.00;0.00;;;;;;;17.97;62.67;100753.38;7356354;19;20797;-55
2023/08/15 05:12:59;;;;;;;0.00;0.00;;;;;;;17.97;62.25;100763.94;7359830;19;20022;-57
2023/08/15 05:15:25;;;;;;;0.10;0.10;;;;;;;17.95;61.98;100756.09;7353918;19;20959;-57
2023/08/15 05:17:51;;;;;;;0.00;0.00;;;;;;;17.89;62.11;100757.28;7361178;19;20015;-57
2023/08/15 05:20:17;;;;;;;0.00;0.00;;;;;;;17.92;62.34;100772.09;7356577;19;20529;-56
2023/08/15 05:22:42;;;;;;;0.10;0.10;;;;;;;17.89;62.47;100772.25;7359714;19;20070;-57
2023/08/15 05:25:08;;;;;;;0.03;0.03;;;;;;;17.87;62.05;100776.78;7353034;19;20739;-56
2023/08/15 05:27:33;;;;;;;0.03;0.03;;;;;;;17.85;62.61;100776.00;7360688;19;20014;-56
2023/08/15 05:29:59;;;;;;;0.08;0.08;;;;;;;17.78;62.29;100766.66;7354203;19;20622;-56
2023/08/15 05:32:24;;;;;;;0.00;0.00;;;;;;;17.82;62.29;100784.06;7359780;19;20785;-56
2023/08/15 05:34:50;;;;;;;0.10;0.10;;;;;;;17.74;62.39;100768.63;7356148;19;20060;-55
2023/08/15 05:37:15;;;;;;;0.10;0.10;;;;;;;17.79;62.31;100786.88;7359362;19;20021;-56
2023/08/15 05:39:40;;;;;;;0.10;0.10;;;;;;;17.76;62.67;100793.16;7355401;19;20018;-57
2023/08/15 05:42:06;;;;;;;0.10;0.10;;;;;;;17.75;62.91;100798.53;7358914;19;20412;-56
2023/08/15 05:44:31;;;;;;;0.00;0.00;;;;;;;17.74;62.46;100791.53;7335842;19;20015;-57
2023/08/15 05:46:57;;;;;;;0.10;0.10;;;;;;;17.72;62.87;100801.28;7358119;19;20018;-56
2023/08/15 05:49:22;;;;;;;0.00;0.00;;;;;;;17.72;63.03;100796.88;7354843;19;20016;-56
2023/08/15 05:51:47;;;;;;;0.10;0.10;;;;;;;17.72;62.98;100802.16;7356509;19;20097;-56
2023/08/15 05:54:13;;;;;;;0.10;0.10;;;;;;;17.70;62.94;100806.66;7354748;19;20336;-57
2023/08/15 05:56:40;;;;;;;0.00;0.00;;;;;;;17.71;63.01;100816.28;7359518;19;20692;-55
2023/08/15 05:59:05;;;;;;;0.10;0.10;;;;;;;17.66;62.59;100807.75;7352424;19;20033;-55
2023/08/15 06:01:31;;;;;;;0.00;0.00;;;;;;;17.72;62.74;100825.91;7355584;19;20609;-57
2023/08/15 06:03:56;;;;;;;0.00;0.00;;;;;;;17.73;62.86;100832.94;7357792;19;21376;-56
2023/08/15 06:06:22;;;;;;;0.05;0.05;;;;;;;17.67;63.17;100820.00;7354737;19;20142;-57
2023/08/15 06:08:48;;;;;;;0.10;0.10;;;;;;;17.75;63.05;100825.81;7357607;19;20363;-54
2023/08/15 06:11:13;;;;;;;0.00;0.00;;;;;;;17.76;62.86;100835.44;7355564;19;20017;-57
2023/08/15 06:13:39;;;;;;;0.00;0.00;;;;;;;17.78;63.24;100838.84;7356162;19;20101;-57
2023/08/15 06:16:04;;;;;;;0.00;0.00;;;;;;;17.80;63.35;100847.56;7352390;19;20085;-57
2023/08/15 06:18:29;;;;;;;0.00;0.00;;;;;;;17.84;62.78;100853.53;7355573;19;20007;-57
2023/08/15 06:20:55;;;;;;;0.00;0.00;;;;;;;17.87;63.14;100848.09;7353677;19;20813;-57
2023/08/15 06:23:21;;;;;;;0.10;0.10;;;;;;;17.89;63.17;100852.38;7354611;19;20093;-56
2023/08/15 06:25:46;;;;;;;0.00;0.00;;;;;;;17.93;62.80;100846.94;7355653;19;20011;-55
2023/08/15 06:28:11;;;;;;;0.03;0.03;;;;;;;17.96;63.28;100857.34;7350446;19;20006;-56
2023/08/15 06:30:41;;;;;;;0.00;0.00;;;;;;;17.95;62.73;100845.94;7352987;19;20014;-56
2023/08/15 06:33:06;;;;;;;0.10;0.10;;;;;;;18.05;62.83;100862.19;7354015;19;20037;-57
2023/08/15 06:35:32;;;;;;;0.00;0.00;;;;;;;18.09;62.68;100864.56;7353877;19;20765;-56
2023/08/15 06:37:57;;;;;;;0.10;0.10;;;;;;;18.13;62.62;100865.25;7354888;19;20537;-56
2023/08/15 06:40:23;;;;;;;0.10;0.10;;;;;;;18.03;63.00;100849.00;7351320;19;20832;-57
2023/08/15 06:42:48;;;;;;;0.10;0.10;;;;;;;18.18;62.71;100868.53;7351364;19;20014;-57
2023/08/15 06:45:16;;;;;;;0.00;0.00;;;;;;;18.21;63.09;100873.66;7354269;19;20010;-56
2023/08/15 06:47:42;;;;;;;0.10;0.10;;;;;;;18.23;62.38;100877.06;7354641;19;20006;-55
2023/08/15 06:50:08;;;;;;;0.00;0.00;;;;;;;18.24;62.91;100884.06;7355835;19;20021;-56
2023/08/15 06:52:34;;;;;;;0.00;0.00;;;;;;;18.24;62.95;100878.78;7351871;19;20014;-54
2023/08/15 06:55:03;;;;;;;0.00;0.00;;;;;;;18.26;62.36;100884.84;7353025;19;20029;-56
2023/08/15 06:57:29;;;;;;;0.10;0.10;;;;;;;18.27;63.06;100889.19;7355465;19;20081;-55
2023/08/15 06:59:54;;;;;;;0.10;0.10;;;;;;;18.28;62.30;100890.91;7352108;19;20013;-57
2023/08/15 07:02:20;;;;;;;0.08;0.08;;;;;;;18.29;62.76;100900.53;7353783;19;20585;-56
2023/08/15 07:04:47;;;;;;;0.00;0.00;;;;;;;18.31;62.36;100901.34;7351112;19;20042;-56
2023/08/15 07:07:13;;;;;;;0.00;0.00;;;;;;;18.33;62.82;100903.88;7355434;19;20011;-57
2023/08/15 07:09:39;;;;;;;0.08;0.08;;;;;;;18.28;62.92;100898.84;7352160;19;20553;-55
2023/08/15 07:12:05;;;;;;;0.05;0.05;;;;;;;18.36;62.59;100925.75;7352789;19;20101;-56
2023/08/15 07:14:31;;;;;;;0.00;0.00;;;;;;;18.38;62.68;100921.22;7347596;19;20022;-58
2023/08/15 07:16:56;;;;;;;0.10;0.10;;;;;;;18.41;62.52;100918.44;7353039;19;20424;-55
2023/08/15 07:19:22;;;;;;;0.00;0.00;;;;;;;18.43;62.83;100923.63;7352640;19;20086;-56
2023/08/15 07:21:48;;;;;;;0.10;0.10;;;;;;;18.47;62.84;100932.28;7350650;19;20021;-55
2023/08/15 07:24:14;;;;;;;0.10;0.10;;;;;;;18.51;62.34;100932.03;7353261;19;20066;-57
2023/08/15 07:26:40;;;;;;;0.00;0.00;;;;;;;18.55;62.46;100924.78;7350295;19;20458;-55
2023/08/15 07:29:06;;;;;;;0.08;0.08;;;;;;;18.58;62.39;100932.56;7352186;19;20007;-57
2023/08/15 07:31:31;;;;;;;0.05;0.05;;;;;;;18.56;62.67;100921.22;7341236;19;20003;-56
2023/08/15 07:33:56;;;;;;;0.10;0.10;;;;;;;18.65;62.31;100940.09;7353233;19;20094;-56
2023/08/15 07:36:22;;;;;;;0.10;0.10;;;;;;;18.69;62.37;100932.88;7350398;19;20006;-55
2023/08/15 07:38:47;;;;;;;0.10;0.10;;;;;;;18.73;62.10;100938.88;7349325;19;20860;-57
2023/08/15 07:41:13;;;;;;;0.10;0.10;;;;;;;18.76;62.40;100944.88;7347359;19;20007;-57
2023/08/15 07:43:38;;;;;;;0.00;0.00;;;;;;;18.79;62.24;100952.63;7351077;19;20006;-56
2023/08/15 07:46:03;;;;;;;0.00;0.00;;;;;;;18.80;61.87;100950.81;7353530;19;20035;-57
2023/08/15 07:48:29;;;;;;;0.10;0.10;;;;;;;18.85;62.28;100954.06;7351870;19;20018;-56
2023/08/15 07:50:55;;;;;;;0.00;0.00;;;;;;;18.88;62.34;100954.78;7355819;19;20034;-56
2023/08/15 07:53:22;;;;;;;0.10;0.10;;;;;;;18.91;62.03;100951.97;7359382;19;20023;-57
2023/08/15 07:55:48;;;;;;;0.15;0.15;;;;;;;18.97;61.97;100949.94;7360094;19;20010;-57
2023/08/15 07:58:14;;;;;;;0.10;0.10;;;;;;;19.02;61.93;100955.84;7356736;19;20010;-57
2023/08/15 08:00:39;;;;;;;0.03;0.03;;;;;;;19.05;61.71;100955.66;7333520;19;20015;-57
2023/08/15 08:03:05;;;;;;;0.00;0.00;;;;;;;19.11;62.13;100961.50;7353189;19;20017;-57
2023/08/15 08:05:31;;;;;;;0.10;0.10;;;;;;;19.17;61.72;100968.25;7352194;19;20010;-56
2023/08/15 08:07:56;;;;;;;0.00;0.00;;;;;;;19.23;61.55;100967.06;7357112;19;20770;-55
2023/08/15 08:10:24;;;;;;;0.10;0.10;;;;;;;19.28;61.96;100967.66;7358133;19;20006;-55
2023/08/15 08:12:50;;;;;;;0.10;0.10;;;;;;;19.33;61.62;100976.22;7356926;19;20011;-57
2023/08/15 08:15:15;;;;;;;0.00;0.00;;;;;;;19.41;61.80;100979.28;7355299;19;20473;-55
2023/08/15 08:17:42;;;;;;;0.10;0.10;;;;;;;19.48;61.63;100985.97;7356010;19;20002;-57
2023/08/15 08:20:16;;;;;;;0.10;0.10;;;;;;;19.55;61.34;100991.75;7356339;19;20023;-54
2023/08/15 08:22:41;;;;;;;0.10;0.10;;;;;;;19.62;61.71;100988.75;7355497;19;20051;-56
2023/08/15 08:25:16;;;;;;;0.03;0.03;;;;;;;19.77;61.12;100992.31;7353471;19;20014;-57
2023/08/15 08:27:41;;;;;;;0.10;0.10;;;;;;;19.79;60.85;101000.19;7354491;19;20623;-57
2023/08/15 08:30:07;;;;;;;0.00;0.00;;;;;;;19.85;60.60;100998.03;7357437;19;20010;-54
2023/08/15 08:32:33;;;;;;;0.10;0.10;;;;;;;19.89;60.74;101001.38;7358485;19;21160;-55
2023/08/15 08:34:58;;;;;;;0.10;0.10;;;;;;;19.95;60.71;100996.56;7357140;19;20014;-57
2023/08/15 08:37:24;;;;;;;0.10;0.10;;;;;;;19.95;60.70;100991.25;7352394;19;20015;-56
2023/08/15 08:39:49;;;;;;;0.00;0.00;;;;;;;20.08;60.60;101003.84;7356367;19;20018;-57
2023/08/15 08:42:15;;;;;;;0.00;0.00;;;;;;;20.14;60.27;101006.97;7356396;19;20045;-55
2023/08/15 08:44:41;;;;;;;0.10;0.10;;;;;;;20.22;60.38;101003.88;7356378;19;20040;-57
2023/08/15 08:47:07;;;;;;;0.05;0.05;;;;;;;20.32;60.38;101007.69;7356373;19;20078;-56
2023/08/15 08:49:34;;;;;;;0.00;0.00;;;;;;;20.30;60.04;100988.38;7355765;19;20873;-55
2023/08/15 08:52:01;;;;;;;0.10;0.10;;;;;;;20.35;59.86;100999.56;7354690;19;20011;-57
2023/08/15 08:54:26;;;;;;;0.10;0.10;;;;;;;20.53;59.76;101012.72;7336216;19;20043;-57
2023/08/15 08:56:55;;;;;;;0.03;0.03;;;;;;;20.64;59.35;101015.59;7358410;19;20010;-57
2023/08/15 08:59:22;;;;;;;0.00;0.00;;;;;;;20.70;59.39;101015.22;7353993;19;20010;-56
2023/08/15 09:01:48;;;;;;;;;;;;;;;20.88;59.04;101014.13;7360413;19;20029;-56
2023/08/15 09:04:13;;;;;;;0.10;0.10;;;;;;;20.90;59.06;101017.53;7356209;19;19919;-57
2023/08/15 09:06:39;;;;;;;0.10;0.10;;;;;;;21.06;58.69;101016.59;7358438;19;20018;-57
2023/08/15 09:09:04;;;;;;;0.10;0.10;;;;;;;21.19;58.85;101017.56;7358513;19;20018;-56
2023/08/15 09:11:34;;;;;;;0.00;0.00;;;;;;;21.35;58.68;101018.34;7356702;19;20090;-56
2023/08/15 09:14:02;;;;;;;0.03;0.03;;;;;;;21.48;58.71;101018.41;7357198;19;20028;-57
2023/08/15 09:16:27;;;;;;;0.00;0.00;;;;;;;21.60;57.92;101024.78;7326054;19;20015;-57
2023/08/15 09:18:53;;;;;;;0.00;0.00;;;;;;;21.72;57.68;101024.81;7347129;19;20026;-56
2023/08/15 09:21:18;;;;;;;0.10;0.10;;;;;;;21.84;57.63;101014.34;7343868;19;20014;-57
2023/08/15 09:23:45;;;;;;;0.00;0.00;;;;;;;21.87;57.35;101003.53;7343414;19;20018;-55
2023/08/15 09:26:14;;;;;;;0.00;0.00;;;;;;;22.14;56.75;101024.81;7343064;19;20738;-55
2023/08/15 09:28:41;;;;;;;0.05;0.05;;;;;;;22.27;56.13;101028.38;7346176;19;20014;-57
2023/08/15 09:31:08;;;;;;;0.00;0.00;;;;;;;22.52;56.07;101028.44;7346251;19;20011;-58
2023/08/15 09:33:35;;;;;;;0.10;0.10;;;;;;;22.71;56.28;101012.09;7345512;19;20022;-54
2023/08/15 09:36:03;;;;;;;0.10;0.10;;;;;;;23.14;55.97;101034.91;7347216;19;20002;-57
2023/08/15 09:38:29;;;;;;;0.00;0.00;;;;;;;23.47;54.87;101042.31;7346341;19;20015;-57
2023/08/15 09:40:55;;;;;;;0.10;0.10;;;;;;;23.74;54.26;101034.19;7346684;19;20074;-56
2023/08/15 09:43:21;;;;;;;0.10;0.10;;;;;;;24.01;54.15;101036.66;7345612;19;20034;-57
2023/08/15 09:45:47;;;;;;;0.00;0.00;;;;;;;24.24;53.78;101024.28;7342634;19;20018;-57
2023/08/15 09:48:13;;;;;;;0.10;0.10;;;;;;;24.65;53.08;101036.34;7344195;19;20014;-55
2023/08/15 09:50:41;;;;;;;0.10;0.10;;;;;;;25.00;52.42;101034.47;7347320;19;20014;-57
2023/08/15 09:53:07;;;;;;;0.03;0.03;;;;;;;25.16;50.33;101025.28;7347936;19;20041;-56
2023/08/15 09:55:35;;;;;;;0.10;0.10;;;;;;;25.47;50.50;101039.75;7343250;19;22397;-56
2023/08/15 09:58:01;;;;;;;0.00;0.00;;;;;;;25.49;49.52;101040.47;7347500;19;20854;-56
2023/08/15 10:00:27;;;;;;;0.10;0.10;;;;;;;25.51;49.03;101042.06;7347018;19;20022;-55
2023/08/15 10:03:01;;;;;;;0.08;0.08;;;;;;;25.54;49.87;101041.78;7346021;19;20034;-57
2023/08/15 10:05:32;;;;;;;0.10;0.10;;;;;;;25.47;50.07;101040.59;7331652;19;20010;-57
2023/08/15 10:07:58;;;;;;;0.00;0.00;;;;;;;25.26;49.31;101018.25;7347018;19;20045;-56
2023/08/15 10:10:24;;;;;;;0.00;0.00;;;;;;;25.29;49.58;101044.72;7343368;19;20014;-56
2023/08/15 10:12:51;;;;;;;0.00;0.00;;;;;;;25.21;47.53;101055.19;7346416;19;20025;-57
2023/08/15 10:15:17;;;;;;;0.00;0.00;;;;;;;25.09;48.13;101057.84;7345244;19;20026;-56
2023/08/15 10:17:43;;;;;;;0.10;0.10;;;;;;;24.96;47.72;101057.06;7345863;19;20478;-57
2023/08/15 10:20:12;;;;;;;0.00;0.00;;;;;;;24.84;48.50;101063.34;7343701;19;20018;-56
2023/08/15 10:22:39;;;;;;;0.00;0.00;;;;;;;24.72;48.69;101066.94;7346565;19;20026;-58
2023/08/15 10:25:33;;;;;;;0.00;0.00;;;;;;;24.66;49.94;101076.28;7343661;19;20036;-56
2023/08/15 10:27:59;;;;;;;0.00;0.00;;;;;;;24.47;48.88;101074.13;7243760;19;2005774;-57
2023/08/15 10:30:42;;;;;;;0.03;0.03;;;;;;;24.46;50.18;101072.44;7345720;19;20010;-56
2023/08/15 10:33:13;;;;;;;0.10;0.10;;;;;;;24.51;49.96;101072.09;7344532;19;20014;-54
2023/08/15 10:36:02;;;;;;;0.10;0.10;;;;;;;24.66;50.56;101070.94;7347441;19;20153;-55
2023/08/15 10:38:40;;;;;;;0.03;0.03;;;;;;;24.78;49.95;101063.81;7340667;19;20010;-54
2023/08/15 10:41:14;;;;;;;0.00;0.00;;;;;;;24.91;50.16;101064.56;7344426;19;20966;-57
2023/08/15 10:43:46;;;;;;;0.00;0.00;;;;;;;25.15;49.61;101066.34;7341745;19;20011;-56
2023/08/15 10:46:12;;;;;;;0.00;0.00;;;;;;;25.30;47.45;101071.34;7345282;19;20010;-58
2023/08/15 10:48:47;;;;;;;0.00;0.00;;;;;;;25.53;48.21;101071.34;7347408;19;20028;-57
2023/08/15 10:51:20;;;;;;;0.00;0.00;;;;;;;25.63;47.41;101072.31;7346179;19;20105;-57
2023/08/15 10:53:53;;;;;;;0.08;0.08;;;;;;;25.76;48.63;101070.38;7345942;19;20455;-56
2023/08/15 10:56:22;;;;;;;0.00;0.00;;;;;;;25.85;46.58;101077.69;7346795;19;20441;-58
2023/08/15 10:58:48;;;;;;;0.00;0.00;;;;;;;26.04;47.15;101082.34;7343803;19;20027;-57
2023/08/15 11:01:25;;;;;;;0.00;0.00;;;;;;;26.36;46.35;101070.84;7348140;19;20010;-57
2023/08/15 11:03:54;;;;;;;0.08;0.08;;;;;;;26.60;46.08;101079.50;7345121;19;20006;-57
2023/08/15 11:06:20;;;;;;;0.00;0.00;;;;;;;26.83;45.92;101087.44;7341975;19;20011;-58
2023/08/15 11:08:49;;;;;;;0.00;0.00;;;;;;;27.09;45.13;101074.53;7345022;19;20017;-56
2023/08/15 11:11:16;;;;;;;0.00;0.00;;;;;;;27.24;44.32;101080.38;7343443;19;20006;-57
2023/08/15 11:13:46;;;;;;;0.10;0.10;;;;;;;27.45;44.21;101077.66;7343424;19;20030;-57
2023/08/15 11:16:17;;;;;;;0.00;0.00;;;;;;;27.54;42.57;101084.91;7343035;19;20019;-57
2023/08/15 11:18:43;;;;;;;0.00;0.00;;;;;;;27.55;42.25;101087.44;7346447;19;20031;-57
2023/08/15 11:21:10;;;;;;;0.10;0.10;;;;;;;27.58;42.94;101081.81;7346110;19;20018;-56
2023/08/15 11:23:36;;;;;;;0.00;0.00;;;;;;;27.65;42.60;101088.31;7351888;19;20011;-58